sensor_id;sensor_type;location;lat;lon;timestamp;temperature;humidity
21267;DHT22;10791;53.108;18.326;2023-06-10T00:01:13;18.00;99.90
21267;DHT22;10791;53.108;18.326;2023-06-10T00:06:17;17.80;99.90
21267;DHT22;10791;53.108;18.326;2023-06-10T00:11:21;17.70;99.90
21267;DHT22;10791;53.108;18.326;2023-06-10T00:16:24;17.70;99.90
21267;DHT22;10791;53.108;18.326;2023-06-10T00:21:28;17.60;99.90
21267;DHT22;10791;53.108;18.326;2023-06-10T00:26:33;17.50;99.90
21267;DHT22;10791;53.108;18.326;2023-06-10T00:31:40;17.50;99.90
21267;DHT22;10791;53.108;18.326;2023-06-10T00:36:43;17.40;99.90
21267;DHT22;10791;53.108;18.326;2023-06-10T00:41:47;17.30;99.90
21267;DHT22;10791;53.108;18.326;2023-06-10T00:46:50;17.30;99.90
21267;DHT22;10791;53.108;18.326;2023-06-10T00:51:56;17.20;99.90
21267;DHT22;10791;53.108;18.326;2023-06-10T00:57:01;17.20;99.90
21267;DHT22;10791;53.108;18.326;2023-06-10T01:02:04;17.20;99.90
21267;DHT22;10791;53.108;18.326;2023-06-10T01:07:25;17.20;99.90
21267;DHT22;10791;53.108;18.326;2023-06-10T01:12:40;17.30;99.90
21267;DHT22;10791;53.108;18.326;2023-06-10T01:22:59;17.30;99.90
21267;DHT22;10791;53.108;18.326;2023-06-10T01:28:24;17.30;99.90
21267;DHT22;10791;53.108;18.326;2023-06-10T01:33:33;17.40;99.90
21267;DHT22;10791;53.108;18.326;2023-06-10T01:38:40;17.50;99.90
21267;DHT22;10791;53.108;18.326;2023-06-10T01:43:45;17.50;99.90
21267;DHT22;10791;53.108;18.326;2023-06-10T01:48:49;17.50;99.90
21267;DHT22;10791;53.108;18.326;2023-06-10T01:53:52;17.50;99.90
21267;DHT22;10791;53.108;18.326;2023-06-10T01:58:55;17.50;99.90
21267;DHT22;10791;53.108;18.326;2023-06-10T02:04:02;17.50;99.90
21267;DHT22;10791;53.108;18.326;2023-06-10T02:09:06;17.50;99.90
21267;DHT22;10791;53.108;18.326;2023-06-10T02:14:09;17.40;99.90
21267;DHT22;10791;53.108;18.326;2023-06-10T02:19:13;17.30;99.90
21267;DHT22;10791;53.108;18.326;2023-06-10T02:24:17;17.20;99.90
21267;DHT22;10791;53.108;18.326;2023-06-10T02:29:21;17.20;99.90
21267;DHT22;10791;53.108;18.326;2023-06-10T02:34:24;17.20;99.90
21267;DHT22;10791;53.108;18.326;2023-06-10T02:39:28;17.20;99.90
21267;DHT22;10791;53.108;18.326;2023-06-10T02:44:31;17.10;99.90
21267;DHT22;10791;53.108;18.326;2023-06-10T02:49:35;17.10;99.90
21267;DHT22;10791;53.108;18.326;2023-06-10T02:54:38;17.00;99.90
21267;DHT22;10791;53.108;18.326;2023-06-10T02:59:42;16.80;99.90
21267;DHT22;10791;53.108;18.326;2023-06-10T03:04:46;16.80;99.90
21267;DHT22;10791;53.108;18.326;2023-06-10T03:09:50;16.80;99.90
21267;DHT22;10791;53.108;18.326;2023-06-10T03:14:54;16.80;99.90
21267;DHT22;10791;53.108;18.326;2023-06-10T03:19:57;16.90;99.90
21267;DHT22;10791;53.108;18.326;2023-06-10T03:25:00;16.90;99.90
21267;DHT22;10791;53.108;18.326;2023-06-10T03:30:04;16.90;99.90
21267;DHT22;10791;53.108;18.326;2023-06-10T03:35:08;17.00;99.90
21267;DHT22;10791;53.108;18.326;2023-06-10T03:40:12;17.10;99.90
21267;DHT22;10791;53.108;18.326;2023-06-10T03:45:15;17.10;99.90
21267;DHT22;10791;53.108;18.326;2023-06-10T03:50:19;17.10;99.90
21267;DHT22;10791;53.108;18.326;2023-06-10T03:55:23;17.20;99.90
21267;DHT22;10791;53.108;18.326;2023-06-10T04:00:26;17.30;99.90
21267;DHT22;10791;53.108;18.326;2023-06-10T04:05:30;17.30;99.90
21267;DHT22;10791;53.108;18.326;2023-06-10T04:10:34;17.30;99.90
21267;DHT22;10791;53.108;18.326;2023-06-10T04:15:37;17.40;99.90
21267;DHT22;10791;53.108;18.326;2023-06-10T04:20:40;18.20;99.90
21267;DHT22;10791;53.108;18.326;2023-06-10T04:25:44;19.00;99.90
21267;DHT22;10791;53.108;18.326;2023-06-10T04:30:48;19.90;99.00
21267;DHT22;10791;53.108;18.326;2023-06-10T04:35:51;20.20;96.40
21267;DHT22;10791;53.108;18.326;2023-06-10T04:40:54;20.80;95.20
21267;DHT22;10791;53.108;18.326;2023-06-10T04:45:58;21.30;93.90
21267;DHT22;10791;53.108;18.326;2023-06-10T04:51:03;20.90;93.40
21267;DHT22;10791;53.108;18.326;2023-06-10T04:56:06;20.40;93.60
21267;DHT22;10791;53.108;18.326;2023-06-10T05:01:11;21.10;92.90
21267;DHT22;10791;53.108;18.326;2023-06-10T05:06:15;21.90;90.20
21267;DHT22;10791;53.108;18.326;2023-06-10T05:11:18;22.10;90.20
21267;DHT22;10791;53.108;18.326;2023-06-10T05:16:22;22.00;88.00
21267;DHT22;10791;53.108;18.326;2023-06-10T05:21:25;21.90;86.70
21267;DHT22;10791;53.108;18.326;2023-06-10T05:26:28;21.50;86.60
21267;DHT22;10791;53.108;18.326;2023-06-10T05:31:34;21.10;87.50
21267;DHT22;10791;53.108;18.326;2023-06-10T05:36:37;21.00;88.10
21267;DHT22;10791;53.108;18.326;2023-06-10T05:41:41;21.10;87.40
21267;DHT22;10791;53.108;18.326;2023-06-10T05:46:44;21.30;86.40
21267;DHT22;10791;53.108;18.326;2023-06-10T05:51:47;21.40;86.60
21267;DHT22;10791;53.108;18.326;2023-06-10T05:56:51;21.60;84.70
21267;DHT22;10791;53.108;18.326;2023-06-10T06:01:54;21.50;83.70
21267;DHT22;10791;53.108;18.326;2023-06-10T06:06:57;21.30;86.20
21267;DHT22;10791;53.108;18.326;2023-06-10T06:12:01;21.50;85.60
21267;DHT22;10791;53.108;18.326;2023-06-10T06:17:05;22.00;84.80
21267;DHT22;10791;53.108;18.326;2023-06-10T06:22:09;22.40;81.60
21267;DHT22;10791;53.108;18.326;2023-06-10T06:27:12;22.30;81.00
21267;DHT22;10791;53.108;18.326;2023-06-10T06:32:16;22.00;81.70
21267;DHT22;10791;53.108;18.326;2023-06-10T06:37:23;21.70;82.30
21267;DHT22;10791;53.108;18.326;2023-06-10T06:42:29;21.70;84.50
21267;DHT22;10791;53.108;18.326;2023-06-10T06:47:32;21.90;83.90
21267;DHT22;10791;53.108;18.326;2023-06-10T06:52:35;21.80;82.70
21267;DHT22;10791;53.108;18.326;2023-06-10T06:57:39;21.90;82.60
21267;DHT22;10791;53.108;18.326;2023-06-10T07:02:42;22.00;82.20
21267;DHT22;10791;53.108;18.326;2023-06-10T07:07:46;22.30;81.00
21267;DHT22;10791;53.108;18.326;2023-06-10T07:12:49;22.40;80.70
21267;DHT22;10791;53.108;18.326;2023-06-10T07:17:52;22.30;82.50
21267;DHT22;10791;53.108;18.326;2023-06-10T07:22:56;22.70;79.20
21267;DHT22;10791;53.108;18.326;2023-06-10T07:27:59;22.90;78.00
21267;DHT22;10791;53.108;18.326;2023-06-10T07:33:02;22.90;77.10
21267;DHT22;10791;53.108;18.326;2023-06-10T07:38:06;22.90;77.50
21267;DHT22;10791;53.108;18.326;2023-06-10T07:43:09;22.90;76.40
21267;DHT22;10791;53.108;18.326;2023-06-10T07:48:13;23.00;76.20
21267;DHT22;10791;53.108;18.326;2023-06-10T07:53:17;23.10;75.70
21267;DHT22;10791;53.108;18.326;2023-06-10T07:58:20;23.00;75.90
21267;DHT22;10791;53.108;18.326;2023-06-10T08:03:25;23.20;75.90
21267;DHT22;10791;53.108;18.326;2023-06-10T08:08:29;23.40;75.70
21267;DHT22;10791;53.108;18.326;2023-06-10T08:13:32;23.50;75.30
21267;DHT22;10791;53.108;18.326;2023-06-10T08:18:36;23.60;74.00
21267;DHT22;10791;53.108;18.326;2023-06-10T08:23:40;23.70;74.70
21267;DHT22;10791;53.108;18.326;2023-06-10T08:28:43;24.00;72.90
21267;DHT22;10791;53.108;18.326;2023-06-10T08:33:48;23.80;73.30
21267;DHT22;10791;53.108;18.326;2023-06-10T08:38:52;24.00;73.60
21267;DHT22;10791;53.108;18.326;2023-06-10T08:44:30;24.30;72.80
21267;DHT22;10791;53.108;18.326;2023-06-10T08:49:38;24.30;71.50
21267;DHT22;10791;53.108;18.326;2023-06-10T08:55:23;24.20;73.90
21267;DHT22;10791;53.108;18.326;2023-06-10T09:00:18;24.50;72.30
21267;DHT22;10791;53.108;18.326;2023-06-10T09:05:22;24.50;70.60
21267;DHT22;10791;53.108;18.326;2023-06-10T09:10:26;24.50;70.50
21267;DHT22;10791;53.108;18.326;2023-06-10T09:15:33;24.70;69.80
21267;DHT22;10791;53.108;18.326;2023-06-10T09:20:38;24.80;70.80
21267;DHT22;10791;53.108;18.326;2023-06-10T09:25:42;24.90;69.50
21267;DHT22;10791;53.108;18.326;2023-06-10T09:30:46;24.90;69.30
21267;DHT22;10791;53.108;18.326;2023-06-10T09:35:50;25.00;69.70
21267;DHT22;10791;53.108;18.326;2023-06-10T09:40:54;25.20;68.90
21267;DHT22;10791;53.108;18.326;2023-06-10T09:45:58;25.40;67.80
21267;DHT22;10791;53.108;18.326;2023-06-10T09:51:01;25.40;63.30
21267;DHT22;10791;53.108;18.326;2023-06-10T09:56:05;25.50;63.90
21267;DHT22;10791;53.108;18.326;2023-06-10T10:01:13;25.60;60.20
21267;DHT22;10791;53.108;18.326;2023-06-10T10:06:20;25.70;60.70
21267;DHT22;10791;53.108;18.326;2023-06-10T10:11:25;25.70;60.00
21267;DHT22;10791;53.108;18.326;2023-06-10T10:16:36;25.70;60.70
21267;DHT22;10791;53.108;18.326;2023-06-10T10:21:54;25.70;58.00
21267;DHT22;10791;53.108;18.326;2023-06-10T10:27:07;25.70;57.50
21267;DHT22;10791;53.108;18.326;2023-06-10T10:32:16;25.90;58.80
21267;DHT22;10791;53.108;18.326;2023-06-10T10:37:23;26.20;57.30
21267;DHT22;10791;53.108;18.326;2023-06-10T10:42:28;26.40;56.20
21267;DHT22;10791;53.108;18.326;2023-06-10T10:47:33;26.40;54.80
21267;DHT22;10791;53.108;18.326;2023-06-10T10:53:01;26.10;55.60
21267;DHT22;10791;53.108;18.326;2023-06-10T10:58:08;26.10;54.10
21267;DHT22;10791;53.108;18.326;2023-06-10T11:03:15;26.10;55.30
21267;DHT22;10791;53.108;18.326;2023-06-10T11:13:32;26.30;54.00
21267;DHT22;10791;53.108;18.326;2023-06-10T11:18:39;26.30;53.30
21267;DHT22;10791;53.108;18.326;2023-06-10T11:23:42;26.40;52.50
21267;DHT22;10791;53.108;18.326;2023-06-10T11:33:58;26.40;52.20
21267;DHT22;10791;53.108;18.326;2023-06-10T11:39:04;26.50;50.20
21267;DHT22;10791;53.108;18.326;2023-06-10T11:44:10;26.50;49.50
21267;DHT22;10791;53.108;18.326;2023-06-10T11:49:14;26.50;46.20
21267;DHT22;10791;53.108;18.326;2023-06-10T11:54:17;26.60;46.00
21267;DHT22;10791;53.108;18.326;2023-06-10T11:59:27;26.50;46.90
21267;DHT22;10791;53.108;18.326;2023-06-10T12:04:31;26.40;48.00
21267;DHT22;10791;53.108;18.326;2023-06-10T12:09:37;26.60;43.90
21267;DHT22;10791;53.108;18.326;2023-06-10T12:14:57;26.50;42.20
21267;DHT22;10791;53.108;18.326;2023-06-10T12:20:09;26.50;43.20
21267;DHT22;10791;53.108;18.326;2023-06-10T12:25:29;26.60;42.40
21267;DHT22;10791;53.108;18.326;2023-06-10T12:30:34;26.70;38.70
21267;DHT22;10791;53.108;18.326;2023-06-10T12:35:50;26.50;38.00
21267;DHT22;10791;53.108;18.326;2023-06-10T12:41:00;26.60;38.70
21267;DHT22;10791;53.108;18.326;2023-06-10T12:46:10;26.60;41.50
21267;DHT22;10791;53.108;18.326;2023-06-10T12:51:15;26.70;45.50
21267;DHT22;10791;53.108;18.326;2023-06-10T12:56:18;26.90;45.90
21267;DHT22;10791;53.108;18.326;2023-06-10T13:01:22;26.80;43.30
21267;DHT22;10791;53.108;18.326;2023-06-10T13:06:25;26.60;44.00
21267;DHT22;10791;53.108;18.326;2023-06-10T13:11:29;26.60;40.90
21267;DHT22;10791;53.108;18.326;2023-06-10T13:16:33;26.50;39.90
21267;DHT22;10791;53.108;18.326;2023-06-10T13:21:36;26.30;41.00
21267;DHT22;10791;53.108;18.326;2023-06-10T13:26:43;26.40;39.80
21267;DHT22;10791;53.108;18.326;2023-06-10T13:31:46;26.50;40.70
21267;DHT22;10791;53.108;18.326;2023-06-10T13:36:50;26.60;41.50
21267;DHT22;10791;53.108;18.326;2023-06-10T13:41:53;26.60;42.40
21267;DHT22;10791;53.108;18.326;2023-06-10T13:46:57;26.50;43.60
21267;DHT22;10791;53.108;18.326;2023-06-10T13:52:01;26.20;44.50
21267;DHT22;10791;53.108;18.326;2023-06-10T13:57:05;26.50;45.10
21267;DHT22;10791;53.108;18.326;2023-06-10T14:02:09;26.60;43.50
21267;DHT22;10791;53.108;18.326;2023-06-10T14:07:13;26.40;43.40
21267;DHT22;10791;53.108;18.326;2023-06-10T14:12:16;26.40;42.50
21267;DHT22;10791;53.108;18.326;2023-06-10T14:17:20;26.30;42.40
21267;DHT22;10791;53.108;18.326;2023-06-10T14:22:24;26.20;43.30
21267;DHT22;10791;53.108;18.326;2023-06-10T14:27:27;26.30;43.00
21267;DHT22;10791;53.108;18.326;2023-06-10T14:32:30;26.40;42.50
21267;DHT22;10791;53.108;18.326;2023-06-10T14:37:34;26.30;43.30
21267;DHT22;10791;53.108;18.326;2023-06-10T14:42:37;26.30;42.80
21267;DHT22;10791;53.108;18.326;2023-06-10T14:47:41;26.40;42.30
21267;DHT22;10791;53.108;18.326;2023-06-10T14:52:44;26.40;42.30
21267;DHT22;10791;53.108;18.326;2023-06-10T14:57:48;26.80;42.50
21267;DHT22;10791;53.108;18.326;2023-06-10T15:02:51;27.30;40.90
21267;DHT22;10791;53.108;18.326;2023-06-10T15:07:55;27.50;40.00
21267;DHT22;10791;53.108;18.326;2023-06-10T15:12:59;27.90;40.10
21267;DHT22;10791;53.108;18.326;2023-06-10T15:18:02;28.20;40.00
21267;DHT22;10791;53.108;18.326;2023-06-10T15:23:06;28.10;40.10
21267;DHT22;10791;53.108;18.326;2023-06-10T15:28:11;28.40;39.40
21267;DHT22;10791;53.108;18.326;2023-06-10T15:33:15;28.30;38.40
21267;DHT22;10791;53.108;18.326;2023-06-10T15:38:18;28.20;38.70
21267;DHT22;10791;53.108;18.326;2023-06-10T15:43:21;27.90;38.50
21267;DHT22;10791;53.108;18.326;2023-06-10T15:48:25;27.80;39.50
21267;DHT22;10791;53.108;18.326;2023-06-10T15:53:28;27.60;40.40
21267;DHT22;10791;53.108;18.326;2023-06-10T15:58:32;27.10;40.60
21267;DHT22;10791;53.108;18.326;2023-06-10T16:03:35;26.80;41.30
21267;DHT22;10791;53.108;18.326;2023-06-10T16:08:39;26.30;41.70
21267;DHT22;10791;53.108;18.326;2023-06-10T16:13:43;26.20;42.80
21267;DHT22;10791;53.108;18.326;2023-06-10T16:18:46;26.00;42.00
21267;DHT22;10791;53.108;18.326;2023-06-10T16:23:49;26.00;42.60
21267;DHT22;10791;53.108;18.326;2023-06-10T16:28:53;26.10;42.10
21267;DHT22;10791;53.108;18.326;2023-06-10T16:33:57;26.10;42.10
21267;DHT22;10791;53.108;18.326;2023-06-10T16:39:00;26.00;42.40
21267;DHT22;10791;53.108;18.326;2023-06-10T16:44:04;25.60;42.70
21267;DHT22;10791;53.108;18.326;2023-06-10T16:49:07;25.50;44.20
21267;DHT22;10791;53.108;18.326;2023-06-10T16:54:11;25.50;42.50
21267;DHT22;10791;53.108;18.326;2023-06-10T16:59:14;25.50;42.60
21267;DHT22;10791;53.108;18.326;2023-06-10T17:04:18;25.30;42.70
21267;DHT22;10791;53.108;18.326;2023-06-10T17:09:21;25.40;42.00
21267;DHT22;10791;53.108;18.326;2023-06-10T17:14:25;25.30;44.10
21267;DHT22;10791;53.108;18.326;2023-06-10T17:19:29;25.10;49.30
21267;DHT22;10791;53.108;18.326;2023-06-10T17:24:32;25.10;49.60
21267;DHT22;10791;53.108;18.326;2023-06-10T17:29:36;25.10;49.80
21267;DHT22;10791;53.108;18.326;2023-06-10T17:34:39;25.10;50.70
21267;DHT22;10791;53.108;18.326;2023-06-10T17:39:42;25.10;51.60
21267;DHT22;10791;53.108;18.326;2023-06-10T17:44:46;25.00;52.60
21267;DHT22;10791;53.108;18.326;2023-06-10T17:49:49;24.70;53.20
21267;DHT22;10791;53.108;18.326;2023-06-10T17:54:53;24.40;53.40
21267;DHT22;10791;53.108;18.326;2023-06-10T17:59:56;24.30;54.30
21267;DHT22;10791;53.108;18.326;2023-06-10T18:04:59;24.00;54.70
21267;DHT22;10791;53.108;18.326;2023-06-10T18:10:03;23.90;55.30
21267;DHT22;10791;53.108;18.326;2023-06-10T18:15:07;23.60;55.80
21267;DHT22;10791;53.108;18.326;2023-06-10T18:20:13;22.90;57.30
21267;DHT22;10791;53.108;18.326;2023-06-10T18:25:16;22.20;59.00
21267;DHT22;10791;53.108;18.326;2023-06-10T18:30:20;21.60;60.50
21267;DHT22;10791;53.108;18.326;2023-06-10T18:35:24;21.20;61.70
21267;DHT22;10791;53.108;18.326;2023-06-10T18:40:27;20.90;62.80
21267;DHT22;10791;53.108;18.326;2023-06-10T18:45:31;20.70;63.50
21267;DHT22;10791;53.108;18.326;2023-06-10T18:50:34;20.50;64.30
21267;DHT22;10791;53.108;18.326;2023-06-10T18:55:37;20.30;64.80
21267;DHT22;10791;53.108;18.326;2023-06-10T19:00:41;20.10;65.50
21267;DHT22;10791;53.108;18.326;2023-06-10T19:05:45;20.00;66.00
21267;DHT22;10791;53.108;18.326;2023-06-10T19:10:48;19.80;67.40
21267;DHT22;10791;53.108;18.326;2023-06-10T19:15:52;19.70;67.30
21267;DHT22;10791;53.108;18.326;2023-06-10T19:20:56;19.40;68.10
21267;DHT22;10791;53.108;18.326;2023-06-10T19:26:00;19.40;68.80
21267;DHT22;10791;53.108;18.326;2023-06-10T19:31:04;19.20;69.50
21267;DHT22;10791;53.108;18.326;2023-06-10T19:36:08;19.10;70.00
21267;DHT22;10791;53.108;18.326;2023-06-10T19:41:12;19.00;70.60
21267;DHT22;10791;53.108;18.326;2023-06-10T19:46:15;18.80;71.50
21267;DHT22;10791;53.108;18.326;2023-06-10T19:51:23;18.70;72.10
21267;DHT22;10791;53.108;18.326;2023-06-10T19:56:27;18.50;72.60
21267;DHT22;10791;53.108;18.326;2023-06-10T20:01:32;18.50;73.10
21267;DHT22;10791;53.108;18.326;2023-06-10T20:06:35;18.40;73.60
21267;DHT22;10791;53.108;18.326;2023-06-10T20:11:39;18.20;74.00
21267;DHT22;10791;53.108;18.326;2023-06-10T20:16:43;18.10;74.40
21267;DHT22;10791;53.108;18.326;2023-06-10T20:21:47;18.10;74.80
21267;DHT22;10791;53.108;18.326;2023-06-10T20:26:51;18.00;75.10
21267;DHT22;10791;53.108;18.326;2023-06-10T20:31:55;17.90;75.50
21267;DHT22;10791;53.108;18.326;2023-06-10T20:36:58;17.80;75.90
21267;DHT22;10791;53.108;18.326;2023-06-10T20:42:02;17.70;76.20
21267;DHT22;10791;53.108;18.326;2023-06-10T20:47:06;17.60;76.30
21267;DHT22;10791;53.108;18.326;2023-06-10T20:52:09;17.60;76.40
21267;DHT22;10791;53.108;18.326;2023-06-10T20:57:13;17.50;76.80
21267;DHT22;10791;53.108;18.326;2023-06-10T21:02:17;17.40;76.90
21267;DHT22;10791;53.108;18.326;2023-06-10T21:07:21;17.30;76.80
21267;DHT22;10791;53.108;18.326;2023-06-10T21:12:25;17.30;77.30
21267;DHT22;10791;53.108;18.326;2023-06-10T21:17:31;17.10;76.90
21267;DHT22;10791;53.108;18.326;2023-06-10T21:22:36;17.10;77.60
21267;DHT22;10791;53.108;18.326;2023-06-10T21:27:39;17.00;76.60
21267;DHT22;10791;53.108;18.326;2023-06-10T21:32:43;17.00;77.10
21267;DHT22;10791;53.108;18.326;2023-06-10T21:37:51;16.90;77.40
21267;DHT22;10791;53.108;18.326;2023-06-10T21:42:55;16.80;77.50
21267;DHT22;10791;53.108;18.326;2023-06-10T21:48:00;16.80;77.30
21267;DHT22;10791;53.108;18.326;2023-06-10T21:53:03;16.70;77.20
21267;DHT22;10791;53.108;18.326;2023-06-10T21:58:06;16.60;77.50
21267;DHT22;10791;53.108;18.326;2023-06-10T22:03:10;16.50;77.60
21267;DHT22;10791;53.108;18.326;2023-06-10T22:08:14;16.40;77.60
21267;DHT22;10791;53.108;18.326;2023-06-10T22:13:17;16.30;77.60
21267;DHT22;10791;53.108;18.326;2023-06-10T22:18:21;16.20;77.50
21267;DHT22;10791;53.108;18.326;2023-06-10T22:23:24;16.20;78.00
21267;DHT22;10791;53.108;18.326;2023-06-10T22:28:28;16.00;78.20
21267;DHT22;10791;53.108;18.326;2023-06-10T22:33:32;16.00;78.40
21267;DHT22;10791;53.108;18.326;2023-06-10T22:38:36;15.80;78.50
21267;DHT22;10791;53.108;18.326;2023-06-10T22:43:39;15.80;78.40
21267;DHT22;10791;53.108;18.326;2023-06-10T22:48:43;15.70;78.50
21267;DHT22;10791;53.108;18.326;2023-06-10T22:53:47;15.60;78.80
21267;DHT22;10791;53.108;18.326;2023-06-10T22:58:51;15.50;78.80
21267;DHT22;10791;53.108;18.326;2023-06-10T23:03:54;15.50;78.70
21267;DHT22;10791;53.108;18.326;2023-06-10T23:08:58;15.40;78.80
21267;DHT22;10791;53.108;18.326;2023-06-10T23:14:01;15.40;79.70
21267;DHT22;10791;53.108;18.326;2023-06-10T23:19:05;15.20;79.30
21267;DHT22;10791;53.108;18.326;2023-06-10T23:24:11;15.20;79.20
21267;DHT22;10791;53.108;18.326;2023-06-10T23:29:19;15.10;79.40
21267;DHT22;10791;53.108;18.326;2023-06-10T23:34:24;15.00;79.50
21267;DHT22;10791;53.108;18.326;2023-06-10T23:39:28;14.90;79.70
21267;DHT22;10791;53.108;18.326;2023-06-10T23:44:31;14.80;79.90
21267;DHT22;10791;53.108;18.326;2023-06-10T23:49:35;14.70;80.10
21267;DHT22;10791;53.108;18.326;2023-06-10T23:54:38;14.60;80.40
21267;DHT22;10791;53.108;18.326;2023-06-10T23:59:42;14.50;80.70
